Time;durP1;ratioP1;P1;durP2;ratioP2;P2;SDS_P1;SDS_P2;PMS_P1;PMS_P2;Temp;Humidity;BMP_temperature;BMP_pressure;BME280_temperature;BME280_humidity;BME280_pressure;Samples;Min_cycle;Max_cycle;Signal;HPM_P1;HPM_P2
2021/08/16 00:02:23;;;;;;;4.55;3.72;;;;;;;20.60;62.66;100572.25;5904509;29;20628;-53
2021/08/16 00:05:44;;;;;;;4.30;3.90;;;;;;;20.51;63.82;100579.78;5908751;29;20332;-55
2021/08/16 00:09:06;;;;;;;4.72;3.30;;;;;;;20.09;65.15;100589.94;5911770;29;20233;-56
2021/08/16 00:12:27;;;;;;;4.25;3.85;;;;;;;20.13;64.29;100559.78;5913502;29;20233;-56
2021/08/16 00:15:49;;;;;;;4.18;3.53;;;;;;;20.23;64.11;100537.19;5909373;29;20242;-55
2021/08/16 00:19:10;;;;;;;6.55;4.93;;;;;;;20.31;63.87;100530.63;5910723;29;20237;-55
2021/08/16 00:22:30;;;;;;;4.47;4.07;;;;;;;20.30;64.26;100531.56;5909364;29;20704;-53
2021/08/16 00:25:51;;;;;;;3.95;3.50;;;;;;;20.32;63.57;100540.28;5910533;29;20238;-53
2021/08/16 00:29:12;;;;;;;5.68;3.85;;;;;;;20.23;64.28;100537.19;5907692;29;20241;-53
2021/08/16 00:32:34;;;;;;;4.57;3.70;;;;;;;20.04;64.25;100533.81;5906937;29;20550;-56
2021/08/16 00:35:56;;;;;;;6.72;4.25;;;;;;;20.34;63.73;100526.03;5912116;29;20270;-54
2021/08/16 00:39:16;;;;;;;5.43;3.60;;;;;;;20.13;64.45;100535.97;5912726;29;20237;-51
2021/08/16 00:42:38;;;;;;;9.32;4.30;;;;;;;20.13;64.80;100551.84;5911273;29;20321;-54
2021/08/16 00:46:00;;;;;;;5.03;3.65;;;;;;;19.62;66.21;100557.09;5901909;29;20250;-54
2021/08/16 00:49:22;;;;;;;5.70;3.90;;;;;;;19.63;65.92;100534.16;5905378;29;20242;-57
2021/08/16 00:52:44;;;;;;;7.93;4.78;;;;;;;20.09;64.60;100531.78;5910111;29;20233;-58
2021/08/16 00:56:07;;;;;;;6.32;3.90;;;;;;;19.95;64.68;100529.00;5909824;29;20705;-55
2021/08/16 00:59:29;;;;;;;8.77;4.93;;;;;;;19.59;66.28;100537.91;5890777;29;20270;-56
2021/08/16 01:02:50;;;;;;;7.65;4.60;;;;;;;19.51;67.04;100548.00;5912660;29;20246;-56
2021/08/16 01:06:13;;;;;;;10.43;3.72;;;;;;;19.06;68.35;100547.56;5908065;29;20250;-54
2021/08/16 01:09:34;;;;;;;7.68;4.38;;;;;;;19.68;66.16;100538.28;5909622;29;20273;-54
2021/08/16 01:12:55;;;;;;;7.63;4.88;;;;;;;19.51;66.97;100540.09;5909831;29;20250;-56
2021/08/16 01:16:17;;;;;;;5.68;4.10;;;;;;;19.76;65.49;100510.66;5911945;29;20241;-57
2021/08/16 01:19:38;;;;;;;5.78;3.80;;;;;;;20.01;64.12;100519.00;5902452;29;20276;-55
2021/08/16 01:23:01;;;;;;;6.78;4.93;;;;;;;18.96;67.42;100514.63;5906569;29;20234;-53
2021/08/16 01:26:22;;;;;;;6.53;4.53;;;;;;;19.01;67.61;100504.72;5903337;29;20241;-53
2021/08/16 01:29:45;;;;;;;9.63;4.20;;;;;;;18.96;67.94;100507.59;5897219;29;20245;-54
2021/08/16 01:33:06;;;;;;;7.15;3.88;;;;;;;18.78;68.88;100516.34;5910249;29;20241;-54
2021/08/16 01:36:27;;;;;;;5.05;4.07;;;;;;;18.60;69.58;100515.44;5909379;29;20337;-52
2021/08/16 01:39:48;;;;;;;7.40;3.83;;;;;;;19.35;67.23;100516.22;5908294;29;20498;-52
2021/08/16 01:43:09;;;;;;;7.57;3.92;;;;;;;19.16;67.59;100508.38;5894129;29;20238;-54
2021/08/16 01:46:31;;;;;;;6.97;4.07;;;;;;;19.46;66.55;100511.25;5910940;29;20242;-55
2021/08/16 01:49:51;;;;;;;7.25;4.63;;;;;;;19.60;65.47;100497.34;5910414;29;20807;-55
2021/08/16 01:53:13;;;;;;;7.07;4.38;;;;;;;19.39;66.54;100504.59;5911156;29;20620;-55
2021/08/16 01:56:34;;;;;;;10.40;4.43;;;;;;;19.56;66.19;100495.78;5913079;29;20241;-56
2021/08/16 01:59:55;;;;;;;8.32;4.63;;;;;;;19.63;65.49;100481.34;5907526;29;20541;-53
2021/08/16 02:03:17;;;;;;;6.53;4.57;;;;;;;19.03;67.93;100492.28;5911813;29;20246;-56
2021/08/16 02:06:38;;;;;;;7.68;5.32;;;;;;;18.85;68.70;100489.63;5908127;29;20253;-54
2021/08/16 02:09:58;;;;;;;9.07;5.15;;;;;;;19.05;68.23;100480.72;5909647;29;20249;-55
2021/08/16 02:13:19;;;;;;;11.05;5.50;;;;;;;18.73;69.46;100481.41;5908083;29;20362;-54
2021/08/16 02:16:40;;;;;;;8.40;5.20;;;;;;;18.78;69.59;100479.41;5903390;29;20507;-52
2021/08/16 02:20:04;;;;;;;8.38;5.43;;;;;;;18.76;69.87;100476.00;5913007;29;20345;-54
2021/08/16 02:23:25;;;;;;;11.38;6.18;;;;;;;18.58;70.42;100483.88;5911045;29;20709;-55
2021/08/16 02:26:46;;;;;;;8.98;5.47;;;;;;;18.20;72.31;100481.22;5897979;29;20241;-53
2021/08/16 02:30:09;;;;;;;6.60;5.90;;;;;;;18.53;70.78;100477.94;5906791;29;20277;-55
2021/08/16 02:33:30;;;;;;;8.85;5.88;;;;;;;18.06;73.16;100481.03;5909319;29;20242;-53
2021/08/16 02:36:52;;;;;;;8.95;5.70;;;;;;;18.58;70.87;100475.97;5910301;29;20234;-54
2021/08/16 02:40:13;;;;;;;8.32;5.85;;;;;;;18.34;72.20;100471.84;5900968;29;20238;-54
2021/08/16 02:43:34;;;;;;;8.05;5.95;;;;;;;18.29;72.26;100480.81;5909849;29;20234;-54
2021/08/16 02:46:56;;;;;;;8.30;5.47;;;;;;;18.15;72.95;100480.59;5908325;29;20242;-55
2021/08/16 02:50:17;;;;;;;12.68;6.80;;;;;;;18.32;72.16;100484.22;5908863;29;20246;-56
2021/08/16 02:53:39;;;;;;;9.85;7.07;;;;;;;18.34;72.38;100466.56;5908109;29;20242;-56
2021/08/16 02:57:00;;;;;;;9.00;6.15;;;;;;;17.93;74.23;100466.69;5906959;29;20246;-52
2021/08/16 03:00:21;;;;;;;12.30;6.55;;;;;;;18.44;72.41;100473.97;5907122;29;20242;-56
2021/08/16 03:03:42;;;;;;;8.40;6.30;;;;;;;17.87;74.22;100458.16;5911432;29;20830;-55
2021/08/16 03:07:03;;;;;;;11.05;6.32;;;;;;;18.10;73.56;100438.63;5903562;29;20333;-54
2021/08/16 03:10:25;;;;;;;8.48;6.47;;;;;;;18.49;72.03;100431.56;5903192;29;20230;-56
2021/08/16 03:13:46;;;;;;;6.28;5.10;;;;;;;18.17;73.08;100433.97;5908655;29;20238;-56
2021/08/16 03:17:08;;;;;;;8.95;5.82;;;;;;;18.01;74.26;100433.81;5906277;29;20265;-52
2021/08/16 03:20:29;;;;;;;8.35;5.25;;;;;;;17.80;75.10;100430.34;5901748;29;20265;-53
2021/08/16 03:23:50;;;;;;;10.88;6.72;;;;;;;17.77;75.00;100425.22;5906310;29;20257;-53
2021/08/16 03:27:13;;;;;;;7.55;5.72;;;;;;;18.20;73.50;100423.25;5901367;29;20241;-55
2021/08/16 03:30:33;;;;;;;7.40;6.50;;;;;;;18.26;73.48;100419.47;5907245;29;20265;-55
2021/08/16 03:33:54;;;;;;;9.15;7.70;;;;;;;18.24;73.34;100416.06;5908422;29;20245;-57
2021/08/16 03:37:15;;;;;;;8.35;6.32;;;;;;;18.01;74.44;100407.47;5902838;29;20237;-57
2021/08/16 03:40:36;;;;;;;8.85;6.88;;;;;;;18.02;74.70;100400.41;5912468;29;20241;-57
2021/08/16 03:43:58;;;;;;;9.23;6.43;;;;;;;18.21;73.50;100397.78;5915039;29;20237;-54
2021/08/16 03:47:19;;;;;;;11.57;7.53;;;;;;;18.15;74.15;100393.66;5906870;29;20296;-51
2021/08/16 03:50:40;;;;;;;10.15;6.40;;;;;;;18.45;73.16;100391.31;5909926;29;20261;-54
2021/08/16 03:54:01;;;;;;;15.23;7.45;;;;;;;18.02;74.72;100395.16;5908712;29;20245;-56
2021/08/16 03:57:21;;;;;;;10.10;6.88;;;;;;;18.02;74.82;100384.59;5902413;29;20241;-56
2021/08/16 04:00:44;;;;;;;10.55;6.80;;;;;;;17.56;76.64;100390.16;5913973;29;20500;-52
2021/08/16 04:04:05;;;;;;;7.82;6.28;;;;;;;17.79;75.80;100386.47;5914253;29;20582;-54
2021/08/16 04:07:26;;;;;;;7.72;6.60;;;;;;;17.80;75.89;100380.31;5907688;29;20337;-54
2021/08/16 04:10:47;;;;;;;9.13;7.28;;;;;;;17.93;75.06;100385.03;5913185;29;20688;-57
2021/08/16 04:14:08;;;;;;;8.30;6.15;;;;;;;17.50;77.41;100386.03;5913542;29;20547;-55
2021/08/16 04:17:30;;;;;;;11.18;7.45;;;;;;;17.44;77.73;100386.28;5891886;29;20234;-56
2021/08/16 04:20:51;;;;;;;8.90;6.20;;;;;;;17.68;75.78;100387.00;5913957;29;20250;-51
2021/08/16 04:24:12;;;;;;;12.50;8.40;;;;;;;17.67;76.16;100384.41;5914175;29;20238;-52
2021/08/16 04:27:33;;;;;;;10.10;7.78;;;;;;;17.64;76.98;100379.28;5908570;29;20234;-55
2021/08/16 04:30:54;;;;;;;11.25;8.98;;;;;;;17.75;76.29;100378.81;5915067;29;20673;-56
2021/08/16 04:34:17;;;;;;;10.43;7.53;;;;;;;17.41;77.75;100386.44;5911380;29;20234;-56
2021/08/16 04:37:38;;;;;;;11.77;8.55;;;;;;;17.77;76.13;100375.16;5914342;29;20242;-55
2021/08/16 04:40:59;;;;;;;11.80;9.63;;;;;;;17.72;76.30;100377.19;5907777;29;20269;-55
2021/08/16 04:44:21;;;;;;;12.73;9.68;;;;;;;17.63;77.20;100377.59;5911586;29;20683;-52
2021/08/16 04:47:44;;;;;;;11.23;9.37;;;;;;;17.87;75.88;100379.13;5911457;29;20245;-55
2021/08/16 04:51:06;;;;;;;11.38;9.68;;;;;;;17.57;76.83;100380.50;5910791;29;20241;-57
2021/08/16 04:54:27;;;;;;;12.27;8.82;;;;;;;17.89;76.05;100356.22;5911437;29;20640;-54
2021/08/16 04:57:48;;;;;;;10.75;8.73;;;;;;;18.06;75.05;100362.47;5919502;29;20246;-56
2021/08/16 05:01:09;;;;;;;12.77;9.60;;;;;;;17.57;76.82;100359.44;5906628;29;20242;-54
2021/08/16 05:04:30;;;;;;;10.87;8.93;;;;;;;17.93;75.56;100361.31;5911657;29;20242;-54
2021/08/16 05:07:54;;;;;;;11.50;9.70;;;;;;;17.94;75.29;100352.50;5909729;29;20978;-56
2021/08/16 05:11:15;;;;;;;12.02;10.27;;;;;;;17.62;76.12;100357.44;5913377;29;20241;-56
2021/08/16 05:14:36;;;;;;;14.30;9.80;;;;;;;17.53;77.32;100353.47;5912506;29;20872;-53
2021/08/16 05:18:00;;;;;;;15.98;11.50;;;;;;;17.79;75.54;100357.50;5912737;29;20238;-55
2021/08/16 05:21:22;;;;;;;12.93;10.40;;;;;;;17.93;75.48;100343.72;5909825;29;20584;-56
2021/08/16 05:24:45;;;;;;;13.10;9.98;;;;;;;18.02;75.38;100355.63;5912946;29;20250;-57
2021/08/16 05:28:06;;;;;;;11.90;9.43;;;;;;;17.68;76.77;100359.78;5907028;29;20268;-55
2021/08/16 05:31:27;;;;;;;16.63;11.63;;;;;;;17.71;75.81;100351.75;5912588;29;20621;-55
2021/08/16 05:34:47;;;;;;;14.98;11.85;;;;;;;17.69;76.05;100366.78;5910902;29;20356;-54
2021/08/16 05:38:08;;;;;;;15.80;11.35;;;;;;;17.63;76.55;100353.91;5909655;29;20242;-54
2021/08/16 05:41:31;;;;;;;12.90;10.48;;;;;;;17.97;75.19;100352.34;5912317;29;20340;-53
2021/08/16 05:44:52;;;;;;;14.77;12.05;;;;;;;18.32;73.74;100349.81;5909733;29;20242;-56
2021/08/16 05:48:17;;;;;;;17.60;13.00;;;;;;;17.65;76.27;100360.78;5906787;29;20241;-53
2021/08/16 05:51:38;;;;;;;15.48;11.95;;;;;;;17.63;76.35;100356.53;5909317;29;20249;-55
2021/08/16 05:54:59;;;;;;;15.20;12.25;;;;;;;18.22;74.14;100352.03;5914540;29;20226;-55
2021/08/16 05:58:21;;;;;;;16.50;12.60;;;;;;;17.85;75.54;100359.88;5908117;29;20241;-51
2021/08/16 06:01:42;;;;;;;13.48;12.00;;;;;;;18.04;74.63;100359.88;5907528;29;20333;-54
2021/08/16 06:05:04;;;;;;;14.80;11.88;;;;;;;18.13;74.03;100363.03;5911800;29;20230;-56
2021/08/16 06:08:25;;;;;;;16.90;12.68;;;;;;;18.11;74.25;100360.47;5909558;29;20238;-52
2021/08/16 06:11:46;;;;;;;15.50;12.57;;;;;;;17.92;74.85;100359.63;5910074;29;20758;-57
2021/08/16 06:15:09;;;;;;;17.02;12.80;;;;;;;18.21;74.21;100350.34;5905675;29;20230;-60
2021/08/16 06:18:31;;;;;;;19.67;11.55;;;;;;;18.14;73.55;100370.84;5905347;29;20609;-55
2021/08/16 06:21:52;;;;;;;17.35;10.57;;;;;;;18.28;73.45;100354.38;5908958;29;20337;-56
2021/08/16 06:25:13;;;;;;;17.15;10.38;;;;;;;18.47;72.36;100362.25;5905419;29;20239;-59
2021/08/16 06:28:35;;;;;;;17.55;11.93;;;;;;;18.35;72.79;100357.56;5908539;29;20242;-58
2021/08/16 06:31:57;;;;;;;17.33;10.98;;;;;;;18.80;71.67;100351.81;5907673;29;20241;-59
2021/08/16 06:35:18;;;;;;;14.02;9.82;;;;;;;18.87;71.09;100358.50;5910481;29;20241;-60
2021/08/16 06:38:39;;;;;;;13.45;10.68;;;;;;;18.54;72.05;100353.09;5909288;29;20692;-60
2021/08/16 06:42:00;;;;;;;15.30;10.30;;;;;;;18.52;72.48;100349.69;5909029;29;20242;-57
2021/08/16 06:45:22;;;;;;;14.73;11.10;;;;;;;18.34;72.27;100356.72;5917014;29;20638;-60
2021/08/16 06:48:45;;;;;;;17.05;10.98;;;;;;;17.95;73.65;100362.97;5896884;29;20608;-59
2021/08/16 06:52:06;;;;;;;15.88;9.95;;;;;;;18.47;72.38;100354.31;5902340;29;20740;-58
2021/08/16 06:55:27;;;;;;;13.40;9.73;;;;;;;18.30;72.28;100350.75;5910798;29;20226;-57
2021/08/16 06:58:49;;;;;;;16.75;10.07;;;;;;;18.16;72.92;100368.16;5909280;29;20328;-58
2021/08/16 07:02:10;;;;;;;19.20;10.80;;;;;;;18.40;72.31;100352.94;5905661;29;20242;-60
2021/08/16 07:05:32;;;;;;;21.95;9.32;;;;;;;18.64;70.99;100361.41;5909328;29;20321;-59
2021/08/16 07:08:53;;;;;;;16.05;9.93;;;;;;;18.41;72.12;100362.53;5899267;29;20543;-59
2021/08/16 07:12:14;;;;;;;16.98;8.98;;;;;;;18.67;71.01;100348.94;5909084;29;20631;-61
2021/08/16 07:15:35;;;;;;;17.33;11.05;;;;;;;18.15;72.17;100372.56;5909903;29;20230;-61
2021/08/16 07:18:56;;;;;;;14.82;10.82;;;;;;;18.25;72.93;100371.19;5915956;29;20911;-58
2021/08/16 07:22:18;;;;;;;12.82;10.32;;;;;;;18.35;72.06;100368.13;5913731;29;20276;-60
2021/08/16 07:25:39;;;;;;;14.10;10.93;;;;;;;18.06;72.11;100363.31;5914707;29;20237;-61
2021/08/16 07:29:00;;;;;;;15.27;12.00;;;;;;;18.30;71.86;100363.94;5890771;29;20248;-60
2021/08/16 07:32:21;;;;;;;19.33;11.27;;;;;;;18.30;72.15;100368.34;5915728;29;20887;-60
2021/08/16 07:35:42;;;;;;;17.05;9.93;;;;;;;18.46;71.85;100358.75;5911593;29;20573;-60
2021/08/16 07:39:04;;;;;;;14.07;9.57;;;;;;;18.23;71.82;100375.69;5915729;29;20229;-62
2021/08/16 07:42:26;;;;;;;15.32;9.77;;;;;;;18.49;71.00;100369.16;5906563;29;20621;-63
2021/08/16 07:45:46;;;;;;;17.65;10.02;;;;;;;18.64;69.61;100364.91;5908984;29;20246;-62
2021/08/16 07:49:07;;;;;;;12.05;9.82;;;;;;;18.26;71.20;100364.13;5913140;29;20550;-63
2021/08/16 07:52:29;;;;;;;14.10;9.35;;;;;;;18.46;70.23;100363.19;5913679;29;20253;-62
2021/08/16 07:55:51;;;;;;;14.65;9.43;;;;;;;18.80;69.39;100356.25;5913839;29;20237;-61
2021/08/16 07:59:12;;;;;;;14.93;10.43;;;;;;;18.87;68.40;100353.22;5913520;29;20333;-62
2021/08/16 08:02:40;;;;;;;18.00;11.18;;;;;;;19.16;66.80;100356.16;5911964;29;20689;-62
2021/08/16 08:06:01;;;;;;;17.05;10.00;;;;;;;19.30;66.30;100344.00;5917642;29;20510;-62
2021/08/16 08:09:22;;;;;;;12.60;9.32;;;;;;;18.96;68.11;100351.03;5906716;29;20368;-62
2021/08/16 08:12:46;;;;;;;12.50;9.40;;;;;;;18.39;69.12;100359.97;5904738;29;20245;-54
2021/08/16 08:16:07;;;;;;;21.35;9.93;;;;;;;18.53;68.90;100340.00;5893646;29;20249;-50
2021/08/16 08:19:28;;;;;;;11.73;9.23;;;;;;;18.86;67.75;100361.22;5885632;29;20629;-55
2021/08/16 08:22:49;;;;;;;14.35;8.88;;;;;;;18.97;67.17;100366.78;5888165;29;20230;-56
2021/08/16 08:26:11;;;;;;;12.82;9.82;;;;;;;18.76;67.24;100363.41;5886281;29;20250;-52
2021/08/16 08:29:33;;;;;;;13.25;8.85;;;;;;;18.69;67.91;100354.97;5858914;29;20250;-57
2021/08/16 08:32:56;;;;;;;10.55;8.20;;;;;;;19.15;66.30;100364.97;5858908;29;20338;-57
2021/08/16 08:36:17;;;;;;;13.98;8.98;;;;;;;19.57;64.01;100355.72;5859204;29;20242;-54
2021/08/16 08:39:39;;;;;;;19.20;9.18;;;;;;;19.37;64.56;100343.59;5884717;29;20246;-56
2021/08/16 08:42:59;;;;;;;16.55;7.97;;;;;;;19.94;62.96;100342.34;5890735;29;20237;-56
2021/08/16 08:46:22;;;;;;;23.80;9.15;;;;;;;19.25;64.26;100350.41;5892077;29;20242;-56
2021/08/16 08:49:42;;;;;;;13.20;6.63;;;;;;;18.97;65.75;100350.97;5886877;29;20257;-55
2021/08/16 08:53:04;;;;;;;11.88;7.47;;;;;;;19.48;64.03;100356.22;5888523;29;20306;-55
2021/08/16 08:56:25;;;;;;;11.10;7.47;;;;;;;19.56;63.17;100353.16;5891902;29;20328;-53
2021/08/16 08:59:46;;;;;;;9.23;7.25;;;;;;;19.39;64.44;100352.31;5907040;29;20242;-57
2021/08/16 09:03:09;;;;;;;11.73;8.00;;;;;;;19.56;63.35;100353.16;5907678;29;20779;-57
2021/08/16 09:06:31;;;;;;;12.38;8.00;;;;;;;19.18;64.68;100348.16;5908165;29;20979;-55
2021/08/16 09:09:54;;;;;;;12.93;7.60;;;;;;;18.86;66.61;100348.00;5903897;29;20226;-58
2021/08/16 09:13:24;;;;;;;11.75;7.80;;;;;;;19.21;64.98;100359.41;5904836;29;20253;-53
2021/08/16 09:16:47;;;;;;;9.50;7.38;;;;;;;18.84;67.75;100363.06;5908246;29;20245;-55
2021/08/16 09:20:17;;;;;;;10.90;9.10;;;;;;;18.23;74.29;100372.19;5911166;29;20326;-55
2021/08/16 09:23:46;;;;;;;19.77;10.45;;;;;;;18.19;73.40;100389.94;5912895;29;20245;-56
2021/08/16 09:27:10;;;;;;;12.07;9.70;;;;;;;17.60;77.65;100380.34;5912940;29;20340;-54
2021/08/16 09:30:33;;;;;;;13.70;10.73;;;;;;;18.10;75.87;100379.81;5909023;29;20268;-52
2021/08/16 09:33:56;;;;;;;16.80;10.13;;;;;;;17.70;77.93;100381.66;5913922;29;20242;-57
2021/08/16 09:37:22;;;;;;;11.93;9.15;;;;;;;17.44;77.80;100381.03;5912178;29;20230;-57
2021/08/16 09:40:44;;;;;;;15.48;9.98;;;;;;;17.90;77.16;100384.25;5910934;29;20234;-55
2021/08/16 09:44:09;;;;;;;10.50;8.47;;;;;;;17.66;77.88;100369.53;5909656;29;20686;-54
2021/08/16 09:47:39;;;;;;;12.57;8.75;;;;;;;17.57;78.61;100370.81;5910738;29;20242;-56
2021/08/16 09:51:00;;;;;;;10.67;6.93;;;;;;;17.78;77.68;100363.72;5913168;29;20242;-58
2021/08/16 09:54:22;;;;;;;10.63;7.77;;;;;;;17.83;78.12;100359.06;5913585;29;20369;-56
2021/08/16 09:57:43;;;;;;;17.88;8.45;;;;;;;17.42;79.32;100355.72;5911969;29;20226;-52
2021/08/16 10:01:04;;;;;;;10.80;8.90;;;;;;;17.25;79.84;100345.94;5910684;29;20304;-53
2021/08/16 10:04:26;;;;;;;11.55;8.52;;;;;;;17.58;79.38;100340.06;5910115;29;20329;-55
2021/08/16 10:07:48;;;;;;;16.27;9.03;;;;;;;17.69;79.32;100358.88;5911542;29;20237;-57
2021/08/16 10:11:15;;;;;;;16.75;8.73;;;;;;;17.28;82.04;100361.59;5911292;29;20558;-56
2021/08/16 10:14:37;;;;;;;10.73;9.40;;;;;;;17.49;81.46;100363.28;5909870;29;20238;-57
2021/08/16 10:17:59;;;;;;;10.05;7.30;;;;;;;17.39;80.37;100376.91;5906949;29;20508;-56
2021/08/16 10:21:22;;;;;;;10.93;8.30;;;;;;;17.85;79.67;100385.38;5911934;29;20341;-56
2021/08/16 10:24:43;;;;;;;9.77;6.73;;;;;;;18.07;77.79;100385.25;5910705;29;20242;-55
2021/08/16 10:28:05;;;;;;;10.15;7.10;;;;;;;17.57;78.48;100388.41;5910191;29;20250;-55
2021/08/16 10:31:31;;;;;;;19.00;7.63;;;;;;;17.39;79.85;100385.66;5910470;29;20234;-55
2021/08/16 10:34:52;;;;;;;7.32;5.07;;;;;;;16.89;80.74;100407.13;5912820;29;20234;-52
2021/08/16 10:38:15;;;;;;;7.87;5.53;;;;;;;17.12;79.14;100396.47;5913281;29;20604;-53
2021/08/16 10:41:39;;;;;;;9.43;6.37;;;;;;;17.10;80.04;100400.94;5909849;29;20253;-55
2021/08/16 10:45:03;;;;;;;8.10;5.75;;;;;;;17.27;79.95;100396.72;5913542;29;20234;-55
2021/08/16 10:48:27;;;;;;;8.27;5.85;;;;;;;17.18;79.45;100397.13;5908539;29;20246;-57
2021/08/16 10:51:48;;;;;;;6.93;4.13;;;;;;;16.79;79.44;100408.34;5907349;29;20504;-54
2021/08/16 10:55:10;;;;;;;6.97;4.23;;;;;;;16.84;80.06;100403.81;5909474;29;20312;-54
2021/08/16 10:58:32;;;;;;;6.57;4.07;;;;;;;16.71;78.77;100409.56;5912008;29;20238;-54
2021/08/16 11:01:55;;;;;;;5.53;3.23;;;;;;;16.78;80.04;100388.25;5910416;29;20265;-54
2021/08/16 11:05:16;;;;;;;4.97;3.33;;;;;;;16.64;78.58;100409.88;5910637;29;20230;-53
2021/08/16 11:08:37;;;;;;;7.60;4.07;;;;;;;16.67;78.40;100409.72;5909723;29;20250;-54
2021/08/16 11:12:02;;;;;;;5.63;3.27;;;;;;;17.08;77.25;100394.03;5909975;29;20262;-55
2021/08/16 11:15:35;;;;;;;5.23;2.90;;;;;;;16.82;78.76;100398.59;5910894;29;20508;-56
2021/08/16 11:18:57;;;;;;;5.33;3.40;;;;;;;17.47;76.11;100407.22;5909930;29;20541;-56
2021/08/16 11:22:18;;;;;;;4.83;3.40;;;;;;;17.48;76.13;100418.59;5910901;29;20238;-56
2021/08/16 11:25:49;;;;;;;6.00;2.73;;;;;;;17.46;75.20;100409.94;5911328;29;20563;-55
2021/08/16 11:29:10;;;;;;;5.30;3.53;;;;;;;17.45;74.87;100395.06;5909916;29;20249;-56
2021/08/16 11:32:33;;;;;;;4.20;2.70;;;;;;;17.66;73.43;100403.75;5898657;29;20617;-55
2021/08/16 11:36:07;;;;;;;3.10;2.70;;;;;;;17.58;72.91;100416.44;5921016;29;20237;-56
2021/08/16 11:39:31;;;;;;;4.50;2.87;;;;;;;17.08;75.92;100402.78;5912379;29;20237;-56
2021/08/16 11:42:53;;;;;;;4.50;2.90;;;;;;;17.17;76.01;100409.41;5910639;29;20234;-55
2021/08/16 11:46:16;;;;;;;2.90;2.58;;;;;;;17.01;74.75;100398.69;5907401;29;20245;-50
2021/08/16 11:49:39;;;;;;;2.80;2.53;;;;;;;17.27;74.13;100404.59;5909160;29;20254;-54
2021/08/16 11:53:01;;;;;;;5.32;3.63;;;;;;;16.82;73.43;100406.50;5911391;29;20301;-56
2021/08/16 11:56:22;;;;;;;6.40;5.80;;;;;;;17.22;74.61;100410.09;5909105;29;20641;-54
2021/08/16 11:59:43;;;;;;;8.93;3.97;;;;;;;16.94;73.86;100420.91;5908208;29;20595;-55
2021/08/16 12:03:05;;;;;;;8.27;4.65;;;;;;;17.31;72.27;100411.44;5909361;29;20249;-56
2021/08/16 12:06:27;;;;;;;7.20;4.40;;;;;;;17.10;72.93;100413.25;5915383;29;20237;-54
2021/08/16 12:09:49;;;;;;;6.35;4.40;;;;;;;17.46;72.45;100418.66;5914367;29;20246;-54
2021/08/16 12:13:13;;;;;;;10.50;4.60;;;;;;;17.38;73.77;100418.16;5904994;29;20242;-56
2021/08/16 12:16:36;;;;;;;5.47;3.53;;;;;;;17.75;71.72;100406.00;5912456;29;20243;-57
2021/08/16 12:20:01;;;;;;;5.53;3.97;;;;;;;18.02;71.80;100421.50;5914125;29;20250;-51
2021/08/16 12:23:27;;;;;;;10.85;4.88;;;;;;;17.41;74.80;100441.72;5913784;29;20238;-55
2021/08/16 12:26:59;;;;;;;6.57;3.90;;;;;;;17.35;75.13;100451.66;5907361;29;20238;-56
2021/08/16 12:30:21;;;;;;;8.00;4.60;;;;;;;17.60;74.33;100456.69;5904524;29;20233;-56
2021/08/16 12:33:52;;;;;;;5.00;3.80;;;;;;;16.64;77.36;100463.28;5912840;29;20230;-54
2021/08/16 12:37:23;;;;;;;4.30;2.87;;;;;;;16.74;74.51;100464.63;5913658;29;20234;-55
2021/08/16 12:40:44;;;;;;;11.60;4.37;;;;;;;16.29;76.49;100468.16;5909868;29;20238;-54
2021/08/16 12:44:17;;;;;;;3.50;2.77;;;;;;;16.28;75.49;100463.78;5914220;29;20249;-54
2021/08/16 12:47:37;;;;;;;4.50;2.80;;;;;;;16.63;75.20;100458.94;5910627;29;20237;-57
2021/08/16 12:51:00;;;;;;;4.83;3.47;;;;;;;16.58;75.60;100462.69;5910219;29;20633;-52
2021/08/16 12:54:21;;;;;;;6.20;3.50;;;;;;;16.29;75.46;100465.53;5912837;29;20524;-55
2021/08/16 12:57:42;;;;;;;5.30;3.83;;;;;;;16.75;73.98;100473.38;5912882;29;20234;-55
2021/08/16 13:01:04;;;;;;;9.70;3.87;;;;;;;16.44;76.11;100465.84;5910750;29;20317;-56
2021/08/16 13:04:27;;;;;;;38.90;10.77;;;;;;;16.79;75.18;100484.63;5909765;29;20233;-54
2021/08/16 13:07:47;;;;;;;9.40;4.10;;;;;;;16.66;74.81;100493.00;5905949;29;20257;-56
2021/08/16 13:11:11;;;;;;;7.10;4.60;;;;;;;16.37;77.72;100493.28;5912876;29;20526;-51
2021/08/16 13:14:37;;;;;;;7.83;4.57;;;;;;;16.63;75.59;100498.38;5914274;29;20555;-55
2021/08/16 13:17:59;;;;;;;6.70;4.00;;;;;;;16.54;74.84;100501.38;5911451;29;20246;-51
2021/08/16 13:21:20;;;;;;;6.93;2.97;;;;;;;16.53;73.79;100507.53;5905198;29;20241;-56
2021/08/16 13:24:41;;;;;;;29.50;8.67;;;;;;;16.92;71.14;100505.16;5910827;29;20237;-55
2021/08/16 13:28:03;;;;;;;6.70;2.57;;;;;;;16.69;71.96;100502.53;5911047;29;20254;-51
2021/08/16 13:31:24;;;;;;;24.20;7.83;;;;;;;17.02;72.17;100496.88;5911846;29;20234;-56
2021/08/16 13:34:46;;;;;;;11.80;7.30;;;;;;;16.48;73.37;100504.25;5913869;29;20238;-56
2021/08/16 13:38:07;;;;;;;6.53;3.73;;;;;;;16.84;72.75;100509.84;5912916;29;20579;-52
2021/08/16 13:41:28;;;;;;;6.30;3.70;;;;;;;17.22;70.85;100498.69;5908150;29;20246;-56
2021/08/16 13:44:49;;;;;;;6.87;3.97;;;;;;;17.22;70.87;100509.22;5912297;29;20250;-55
2021/08/16 13:48:10;;;;;;;10.03;5.63;;;;;;;17.62;70.34;100503.13;5909090;29;20664;-56
2021/08/16 13:51:32;;;;;;;8.00;3.33;;;;;;;17.49;70.23;100500.16;5912123;29;20250;-57
2021/08/16 13:54:53;;;;;;;6.23;2.77;;;;;;;17.04;71.87;100508.19;5913765;29;20246;-55
2021/08/16 13:58:16;;;;;;;7.60;3.00;;;;;;;17.23;72.10;100501.25;5911280;29;20264;-56
2021/08/16 14:01:37;;;;;;;8.15;3.65;;;;;;;16.72;73.19;100518.19;5910695;29;20246;-55
2021/08/16 14:04:58;;;;;;;10.77;3.30;;;;;;;16.82;72.83;100511.69;5902224;29;20580;-57
2021/08/16 14:08:23;;;;;;;8.87;3.10;;;;;;;16.51;73.88;100506.75;5911478;29;20234;-58
2021/08/16 14:11:44;;;;;;;9.13;3.67;;;;;;;16.27;73.72;100512.03;5912455;29;20242;-55
2021/08/16 14:15:06;;;;;;;6.60;3.67;;;;;;;16.34;74.16;100508.25;5910171;29;20245;-57
2021/08/16 14:18:27;;;;;;;8.90;3.20;;;;;;;16.22;75.40;100513.09;5910557;29;20578;-54
2021/08/16 14:21:48;;;;;;;8.13;3.37;;;;;;;16.69;73.71;100518.31;5911760;29;20517;-56
2021/08/16 14:25:13;;;;;;;6.10;2.90;;;;;;;16.78;73.96;100525.00;5912044;29;20238;-54
2021/08/16 14:28:37;;;;;;;11.53;3.57;;;;;;;16.56;73.76;100523.22;5911753;29;20289;-56
2021/08/16 14:31:58;;;;;;;6.07;3.50;;;;;;;16.12;75.94;100517.84;5908008;29;20261;-54
2021/08/16 14:35:19;;;;;;;9.70;3.83;;;;;;;16.58;75.44;100510.84;5908673;29;20695;-55
2021/08/16 14:38:40;;;;;;;7.37;2.63;;;;;;;15.87;76.52;100510.84;5909842;29;20242;-52
2021/08/16 14:42:03;;;;;;;9.27;3.40;;;;;;;16.38;74.63;100518.63;5913217;29;20238;-56
2021/08/16 14:45:27;;;;;;;10.17;3.67;;;;;;;16.03;75.98;100520.78;5891819;29;20371;-57
2021/08/16 14:48:48;;;;;;;7.47;3.00;;;;;;;16.23;75.30;100526.19;5916668;29;20249;-52
2021/08/16 14:52:08;;;;;;;8.37;3.87;;;;;;;16.23;75.26;100531.44;5911079;29;20265;-53
2021/08/16 14:55:30;;;;;;;6.33;3.47;;;;;;;16.14;75.59;100534.41;5907836;29;20264;-52
2021/08/16 14:58:53;;;;;;;8.03;3.77;;;;;;;16.43;73.52;100533.31;5911126;29;20620;-57
2021/08/16 15:02:14;;;;;;;8.20;4.30;;;;;;;16.29;73.80;100535.63;5909491;29;20332;-55
2021/08/16 15:05:35;;;;;;;12.60;4.73;;;;;;;16.12;73.28;100536.22;5910693;29;20238;-53
2021/08/16 15:08:56;;;;;;;8.90;4.93;;;;;;;16.15;73.09;100549.28;5907885;29;20548;-57
2021/08/16 15:12:16;;;;;;;10.53;3.90;;;;;;;16.84;71.03;100543.19;5913411;29;20238;-55
2021/08/16 15:15:39;;;;;;;7.93;3.73;;;;;;;16.29;71.18;100535.63;5909396;29;20245;-56
2021/08/16 15:19:00;;;;;;;6.90;3.50;;;;;;;16.65;70.49;100550.91;5905168;29;20349;-56
2021/08/16 15:22:21;;;;;;;5.27;3.10;;;;;;;16.67;70.85;100546.44;5911670;29;20242;-54
2021/08/16 15:25:41;;;;;;;8.13;3.07;;;;;;;16.58;70.17;100541.56;5910564;29;20290;-54
2021/08/16 15:29:05;;;;;;;12.00;3.80;;;;;;;17.10;68.09;100545.63;5908369;29;20241;-55
2021/08/16 15:32:27;;;;;;;9.30;3.60;;;;;;;17.05;67.21;100552.84;5908722;29;20257;-54